Avondale, Pennsylvania
Current Conditions -  °F | °C
As of 2:55 AM on Sunday 26 Oct 2014 (Local Time) from KMQS Reporting Station
Broken Clouds Broken Clouds  
Wind Chill: 57°   Ceiling: 6500
Heat Index: 57°   Visibility: 10mi
Dew Point: 48°   Wind: 3mph
Humidity: 72%   Direction: 260°W
Pressure: 29.63"   Gusts: NA
Location:  39.82°N, 75.78°W
Report Text: KMQS 260655Z AUTO 26003KT 10SM BKN065 14/09 A2963 RMK AO2
Loading
Personal Weather Stations






























Interactive Weather Map
Tropical Storm Tracking
New forecast layout! Learn more

10-Day Weather Forecast

Advertisements
Track Severe Weather on mobile